sensor_id;sensor_type;location;lat;lon;timestamp;temperature;humidity
64034;SHT31;50280;49.864;8.638;2022-09-01T00:00:13;17.37;63.27
64034;SHT31;50280;49.864;8.638;2022-09-01T00:03:04;17.34;63.28
64034;SHT31;50280;49.864;8.638;2022-09-01T00:05:56;17.31;63.33
64034;SHT31;50280;49.864;8.638;2022-09-01T00:08:47;17.30;63.33
64034;SHT31;50280;49.864;8.638;2022-09-01T00:11:39;17.26;63.46
64034;SHT31;50280;49.864;8.638;2022-09-01T00:14:38;17.23;63.68
64034;SHT31;50280;49.864;8.638;2022-09-01T00:17:31;17.19;63.80
64034;SHT31;50280;49.864;8.638;2022-09-01T00:20:22;17.13;64.01
64034;SHT31;50280;49.864;8.638;2022-09-01T00:23:13;17.10;64.07
64034;SHT31;50280;49.864;8.638;2022-09-01T00:26:04;17.06;64.14
64034;SHT31;50280;49.864;8.638;2022-09-01T00:28:55;17.02;64.34
64034;SHT31;50280;49.864;8.638;2022-09-01T00:31:49;16.95;64.52
64034;SHT31;50280;49.864;8.638;2022-09-01T00:34:41;16.89;64.73
64034;SHT31;50280;49.864;8.638;2022-09-01T00:37:32;16.86;64.83
64034;SHT31;50280;49.864;8.638;2022-09-01T00:40:23;16.82;64.98
64034;SHT31;50280;49.864;8.638;2022-09-01T00:43:18;16.78;65.06
64034;SHT31;50280;49.864;8.638;2022-09-01T00:46:16;16.78;65.13
64034;SHT31;50280;49.864;8.638;2022-09-01T00:49:14;16.73;65.15
64034;SHT31;50280;49.864;8.638;2022-09-01T00:52:15;16.72;65.15
64034;SHT31;50280;49.864;8.638;2022-09-01T00:55:16;16.71;65.18
64034;SHT31;50280;49.864;8.638;2022-09-01T00:58:12;16.68;65.22
64034;SHT31;50280;49.864;8.638;2022-09-01T01:01:05;16.68;65.33
64034;SHT31;50280;49.864;8.638;2022-09-01T01:03:59;16.65;65.38
64034;SHT31;50280;49.864;8.638;2022-09-01T01:06:55;16.64;65.33
64034;SHT31;50280;49.864;8.638;2022-09-01T01:09:50;16.62;65.37
64034;SHT31;50280;49.864;8.638;2022-09-01T01:12:41;16.58;65.43
64034;SHT31;50280;49.864;8.638;2022-09-01T01:15:33;16.58;65.63
64034;SHT31;50280;49.864;8.638;2022-09-01T01:18:25;16.57;65.44
64034;SHT31;50280;49.864;8.638;2022-09-01T01:21:20;16.55;65.43
64034;SHT31;50280;49.864;8.638;2022-09-01T01:24:24;16.50;65.58
64034;SHT31;50280;49.864;8.638;2022-09-01T01:27:18;16.45;65.88
64034;SHT31;50280;49.864;8.638;2022-09-01T01:30:11;16.45;65.79
64034;SHT31;50280;49.864;8.638;2022-09-01T01:33:04;16.40;65.94
64034;SHT31;50280;49.864;8.638;2022-09-01T01:35:56;16.37;66.04
64034;SHT31;50280;49.864;8.638;2022-09-01T01:38:48;16.34;66.00
64034;SHT31;50280;49.864;8.638;2022-09-01T01:41:43;16.28;66.17
64034;SHT31;50280;49.864;8.638;2022-09-01T01:44:36;16.24;66.20
64034;SHT31;50280;49.864;8.638;2022-09-01T01:47:28;16.17;66.47
64034;SHT31;50280;49.864;8.638;2022-09-01T01:50:20;16.16;66.52
64034;SHT31;50280;49.864;8.638;2022-09-01T01:53:14;16.10;66.64
64034;SHT31;50280;49.864;8.638;2022-09-01T01:56:06;16.10;66.80
64034;SHT31;50280;49.864;8.638;2022-09-01T01:58:59;16.07;66.81
64034;SHT31;50280;49.864;8.638;2022-09-01T02:01:51;16.03;67.00
64034;SHT31;50280;49.864;8.638;2022-09-01T02:04:42;16.02;66.95
64034;SHT31;50280;49.864;8.638;2022-09-01T02:07:34;16.00;67.00
64034;SHT31;50280;49.864;8.638;2022-09-01T02:10:26;16.00;67.09
64034;SHT31;50280;49.864;8.638;2022-09-01T02:13:21;15.93;67.17
64034;SHT31;50280;49.864;8.638;2022-09-01T02:16:15;15.92;67.34
64034;SHT31;50280;49.864;8.638;2022-09-01T02:19:07;15.86;67.48
64034;SHT31;50280;49.864;8.638;2022-09-01T02:21:59;15.85;67.45
64034;SHT31;50280;49.864;8.638;2022-09-01T02:24:50;15.81;67.50
64034;SHT31;50280;49.864;8.638;2022-09-01T02:27:41;15.82;67.55
64034;SHT31;50280;49.864;8.638;2022-09-01T02:30:33;15.79;67.61
64034;SHT31;50280;49.864;8.638;2022-09-01T02:33:25;15.77;67.66
64034;SHT31;50280;49.864;8.638;2022-09-01T02:36:17;15.75;67.66
64034;SHT31;50280;49.864;8.638;2022-09-01T02:39:09;15.73;67.73
64034;SHT31;50280;49.864;8.638;2022-09-01T02:42:01;15.73;67.74
64034;SHT31;50280;49.864;8.638;2022-09-01T02:44:53;15.73;67.82
64034;SHT31;50280;49.864;8.638;2022-09-01T02:47:45;15.73;67.80
64034;SHT31;50280;49.864;8.638;2022-09-01T02:50:38;15.71;67.95
64034;SHT31;50280;49.864;8.638;2022-09-01T02:53:32;15.72;67.97
64034;SHT31;50280;49.864;8.638;2022-09-01T02:56:25;15.73;68.07
64034;SHT31;50280;49.864;8.638;2022-09-01T02:59:17;15.71;68.05
64034;SHT31;50280;49.864;8.638;2022-09-01T03:02:09;15.68;68.07
64034;SHT31;50280;49.864;8.638;2022-09-01T03:05:00;15.68;68.15
64034;SHT31;50280;49.864;8.638;2022-09-01T03:07:56;15.65;68.31
64034;SHT31;50280;49.864;8.638;2022-09-01T03:10:50;15.65;68.44
64034;SHT31;50280;49.864;8.638;2022-09-01T03:13:42;15.63;68.43
64034;SHT31;50280;49.864;8.638;2022-09-01T03:16:35;15.59;68.65
64034;SHT31;50280;49.864;8.638;2022-09-01T03:19:28;15.61;68.78
64034;SHT31;50280;49.864;8.638;2022-09-01T03:22:19;15.62;68.82
64034;SHT31;50280;49.864;8.638;2022-09-01T03:25:12;15.63;68.86
64034;SHT31;50280;49.864;8.638;2022-09-01T03:28:04;15.61;68.80
64034;SHT31;50280;49.864;8.638;2022-09-01T03:30:57;15.59;68.94
64034;SHT31;50280;49.864;8.638;2022-09-01T03:33:48;15.58;68.94
64034;SHT31;50280;49.864;8.638;2022-09-01T03:36:39;15.57;69.16
64034;SHT31;50280;49.864;8.638;2022-09-01T03:39:30;15.57;69.15
64034;SHT31;50280;49.864;8.638;2022-09-01T03:42:23;15.55;69.31
64034;SHT31;50280;49.864;8.638;2022-09-01T03:45:14;15.54;69.22
64034;SHT31;50280;49.864;8.638;2022-09-01T03:48:07;15.55;69.17
64034;SHT31;50280;49.864;8.638;2022-09-01T03:51:00;15.55;69.16
64034;SHT31;50280;49.864;8.638;2022-09-01T03:53:52;15.55;69.09
64034;SHT31;50280;49.864;8.638;2022-09-01T03:56:44;15.51;69.28
64034;SHT31;50280;49.864;8.638;2022-09-01T03:59:39;15.50;69.31
64034;SHT31;50280;49.864;8.638;2022-09-01T04:02:30;15.51;69.36
64034;SHT31;50280;49.864;8.638;2022-09-01T04:05:22;15.48;69.46
64034;SHT31;50280;49.864;8.638;2022-09-01T04:08:17;15.45;69.48
64034;SHT31;50280;49.864;8.638;2022-09-01T04:11:12;15.44;69.49
64034;SHT31;50280;49.864;8.638;2022-09-01T04:14:09;15.45;69.57
64034;SHT31;50280;49.864;8.638;2022-09-01T04:17:02;15.44;69.59
64034;SHT31;50280;49.864;8.638;2022-09-01T04:19:53;15.45;69.55
64034;SHT31;50280;49.864;8.638;2022-09-01T04:22:44;15.45;69.65
64034;SHT31;50280;49.864;8.638;2022-09-01T04:25:36;15.47;69.71
64034;SHT31;50280;49.864;8.638;2022-09-01T04:28:31;15.45;69.78
64034;SHT31;50280;49.864;8.638;2022-09-01T04:31:23;15.50;69.75
64034;SHT31;50280;49.864;8.638;2022-09-01T04:34:15;15.52;69.64
64034;SHT31;50280;49.864;8.638;2022-09-01T04:37:08;15.57;69.34
64034;SHT31;50280;49.864;8.638;2022-09-01T04:40:03;15.55;69.38
64034;SHT31;50280;49.864;8.638;2022-09-01T04:42:56;15.58;69.27
64034;SHT31;50280;49.864;8.638;2022-09-01T04:45:47;15.62;69.19
64034;SHT31;50280;49.864;8.638;2022-09-01T04:48:39;15.63;69.01
64034;SHT31;50280;49.864;8.638;2022-09-01T04:51:32;15.66;70.36
64034;SHT31;50280;49.864;8.638;2022-09-01T04:54:23;15.71;69.16
64034;SHT31;50280;49.864;8.638;2022-09-01T04:57:15;15.73;68.84
64034;SHT31;50280;49.864;8.638;2022-09-01T05:00:07;15.73;68.80
64034;SHT31;50280;49.864;8.638;2022-09-01T05:03:02;15.75;68.58
64034;SHT31;50280;49.864;8.638;2022-09-01T05:05:53;15.73;68.84
64034;SHT31;50280;49.864;8.638;2022-09-01T05:08:46;15.72;68.77
64034;SHT31;50280;49.864;8.638;2022-09-01T05:11:38;15.69;68.80
64034;SHT31;50280;49.864;8.638;2022-09-01T05:14:30;15.72;68.88
64034;SHT31;50280;49.864;8.638;2022-09-01T05:17:22;15.71;69.14
64034;SHT31;50280;49.864;8.638;2022-09-01T05:20:13;15.71;68.90
64034;SHT31;50280;49.864;8.638;2022-09-01T05:23:04;15.75;68.81
64034;SHT31;50280;49.864;8.638;2022-09-01T05:25:57;15.73;68.91
64034;SHT31;50280;49.864;8.638;2022-09-01T05:28:51;15.72;68.80
64034;SHT31;50280;49.864;8.638;2022-09-01T05:31:47;15.75;68.90
64034;SHT31;50280;49.864;8.638;2022-09-01T05:34:39;15.77;68.91
64034;SHT31;50280;49.864;8.638;2022-09-01T05:37:31;15.78;68.92
64034;SHT31;50280;49.864;8.638;2022-09-01T05:40:22;15.81;68.62
64034;SHT31;50280;49.864;8.638;2022-09-01T05:43:15;15.86;68.39
64034;SHT31;50280;49.864;8.638;2022-09-01T05:46:06;15.89;68.62
64034;SHT31;50280;49.864;8.638;2022-09-01T05:48:58;15.95;68.53
64034;SHT31;50280;49.864;8.638;2022-09-01T05:51:50;15.99;68.43
64034;SHT31;50280;49.864;8.638;2022-09-01T05:54:43;16.02;67.97
64034;SHT31;50280;49.864;8.638;2022-09-01T05:57:34;16.09;67.99
64034;SHT31;50280;49.864;8.638;2022-09-01T06:00:27;16.14;67.79
64034;SHT31;50280;49.864;8.638;2022-09-01T06:03:18;16.20;67.74
64034;SHT31;50280;49.864;8.638;2022-09-01T06:06:10;16.24;67.66
64034;SHT31;50280;49.864;8.638;2022-09-01T06:09:01;16.28;67.36
64034;SHT31;50280;49.864;8.638;2022-09-01T06:11:54;16.34;67.10
64034;SHT31;50280;49.864;8.638;2022-09-01T06:14:46;16.41;66.77
64034;SHT31;50280;49.864;8.638;2022-09-01T06:17:41;16.45;66.88
64034;SHT31;50280;49.864;8.638;2022-09-01T06:20:33;16.51;67.12
64034;SHT31;50280;49.864;8.638;2022-09-01T06:23:28;16.58;66.56
64034;SHT31;50280;49.864;8.638;2022-09-01T06:26:22;16.68;66.59
64034;SHT31;50280;49.864;8.638;2022-09-01T06:29:16;16.72;66.25
64034;SHT31;50280;49.864;8.638;2022-09-01T06:32:09;16.80;66.03
64034;SHT31;50280;49.864;8.638;2022-09-01T06:35:02;16.86;65.81
64034;SHT31;50280;49.864;8.638;2022-09-01T06:37:53;16.95;65.52
64034;SHT31;50280;49.864;8.638;2022-09-01T06:40:45;17.00;65.01
64034;SHT31;50280;49.864;8.638;2022-09-01T06:43:37;17.06;65.36
64034;SHT31;50280;49.864;8.638;2022-09-01T06:46:29;17.12;65.13
64034;SHT31;50280;49.864;8.638;2022-09-01T06:49:21;17.23;64.79
64034;SHT31;50280;49.864;8.638;2022-09-01T06:52:14;17.28;64.73
64034;SHT31;50280;49.864;8.638;2022-09-01T06:55:06;17.38;64.76
64034;SHT31;50280;49.864;8.638;2022-09-01T06:57:59;17.47;64.02
64034;SHT31;50280;49.864;8.638;2022-09-01T07:00:50;17.57;64.14
64034;SHT31;50280;49.864;8.638;2022-09-01T07:03:42;17.68;63.80
64034;SHT31;50280;49.864;8.638;2022-09-01T07:06:38;17.81;63.48
64034;SHT31;50280;49.864;8.638;2022-09-01T07:09:32;17.92;63.17
64034;SHT31;50280;49.864;8.638;2022-09-01T07:12:23;18.06;63.06
64034;SHT31;50280;49.864;8.638;2022-09-01T07:15:15;18.20;62.73
64034;SHT31;50280;49.864;8.638;2022-09-01T07:18:07;18.43;61.78
64034;SHT31;50280;49.864;8.638;2022-09-01T07:20:59;18.59;61.40
64034;SHT31;50280;49.864;8.638;2022-09-01T07:23:50;18.69;61.17
64034;SHT31;50280;49.864;8.638;2022-09-01T07:26:43;18.98;61.09
64034;SHT31;50280;49.864;8.638;2022-09-01T07:29:36;19.31;60.07
64034;SHT31;50280;49.864;8.638;2022-09-01T07:32:28;19.61;59.11
64034;SHT31;50280;49.864;8.638;2022-09-01T07:35:20;19.79;58.34
64034;SHT31;50280;49.864;8.638;2022-09-01T07:38:12;19.96;58.03
64034;SHT31;50280;49.864;8.638;2022-09-01T07:41:04;20.03;57.40
64034;SHT31;50280;49.864;8.638;2022-09-01T07:43:56;20.14;57.72
64034;SHT31;50280;49.864;8.638;2022-09-01T07:46:48;20.27;57.31
64034;SHT31;50280;49.864;8.638;2022-09-01T07:49:39;20.40;56.62
64034;SHT31;50280;49.864;8.638;2022-09-01T07:52:30;20.52;56.70
64034;SHT31;50280;49.864;8.638;2022-09-01T07:55:23;20.59;56.39
64034;SHT31;50280;49.864;8.638;2022-09-01T07:58:14;20.73;56.29
64034;SHT31;50280;49.864;8.638;2022-09-01T08:01:07;20.78;56.19
64034;SHT31;50280;49.864;8.638;2022-09-01T08:04:02;20.88;56.10
64034;SHT31;50280;49.864;8.638;2022-09-01T08:06:53;20.89;55.40
64034;SHT31;50280;49.864;8.638;2022-09-01T08:09:44;20.90;55.67
64034;SHT31;50280;49.864;8.638;2022-09-01T08:12:36;20.89;55.53
64034;SHT31;50280;49.864;8.638;2022-09-01T08:15:27;20.90;55.82
64034;SHT31;50280;49.864;8.638;2022-09-01T08:18:20;21.00;55.14
64034;SHT31;50280;49.864;8.638;2022-09-01T08:21:12;21.09;55.17
64034;SHT31;50280;49.864;8.638;2022-09-01T08:24:05;21.20;55.03
64034;SHT31;50280;49.864;8.638;2022-09-01T08:26:56;21.23;54.90
64034;SHT31;50280;49.864;8.638;2022-09-01T08:29:47;21.26;54.98
64034;SHT31;50280;49.864;8.638;2022-09-01T08:32:39;21.28;55.00
64034;SHT31;50280;49.864;8.638;2022-09-01T08:35:32;21.35;55.02
64034;SHT31;50280;49.864;8.638;2022-09-01T08:38:23;21.40;54.48
64034;SHT31;50280;49.864;8.638;2022-09-01T08:41:18;21.48;54.87
64034;SHT31;50280;49.864;8.638;2022-09-01T08:44:28;21.57;55.02
64034;SHT31;50280;49.864;8.638;2022-09-01T08:47:31;21.64;54.17
64034;SHT31;50280;49.864;8.638;2022-09-01T08:50:23;21.68;54.47
64034;SHT31;50280;49.864;8.638;2022-09-01T08:53:22;21.75;53.88
64034;SHT31;50280;49.864;8.638;2022-09-01T08:56:22;21.83;54.49
64034;SHT31;50280;49.864;8.638;2022-09-01T08:59:15;21.95;53.41
64034;SHT31;50280;49.864;8.638;2022-09-01T09:02:20;22.02;53.48
64034;SHT31;50280;49.864;8.638;2022-09-01T09:05:34;22.10;53.14
64034;SHT31;50280;49.864;8.638;2022-09-01T09:08:52;22.33;52.80
64034;SHT31;50280;49.864;8.638;2022-09-01T09:12:05;22.50;52.72
64034;SHT31;50280;49.864;8.638;2022-09-01T09:15:18;22.85;51.72
64034;SHT31;50280;49.864;8.638;2022-09-01T09:18:23;23.03;50.61
64034;SHT31;50280;49.864;8.638;2022-09-01T09:21:29;23.31;49.39
64034;SHT31;50280;49.864;8.638;2022-09-01T09:24:29;23.88;48.73
64034;SHT31;50280;49.864;8.638;2022-09-01T09:27:28;24.29;47.17
64034;SHT31;50280;49.864;8.638;2022-09-01T09:30:24;24.44;47.16
64034;SHT31;50280;49.864;8.638;2022-09-01T09:33:33;24.75;46.15
64034;SHT31;50280;49.864;8.638;2022-09-01T09:36:31;24.82;45.53
64034;SHT31;50280;49.864;8.638;2022-09-01T09:39:24;24.68;45.91
64034;SHT31;50280;49.864;8.638;2022-09-01T09:42:17;24.64;45.54
64034;SHT31;50280;49.864;8.638;2022-09-01T09:45:21;24.79;45.75
64034;SHT31;50280;49.864;8.638;2022-09-01T09:48:26;24.75;45.76
64034;SHT31;50280;49.864;8.638;2022-09-01T09:51:21;25.19;44.68
64034;SHT31;50280;49.864;8.638;2022-09-01T09:54:14;25.84;43.59
64034;SHT31;50280;49.864;8.638;2022-09-01T09:57:14;25.64;43.72
64034;SHT31;50280;49.864;8.638;2022-09-01T10:00:18;25.47;44.76
64034;SHT31;50280;49.864;8.638;2022-09-01T10:03:12;25.36;43.83
64034;SHT31;50280;49.864;8.638;2022-09-01T10:06:09;25.37;43.77
64034;SHT31;50280;49.864;8.638;2022-09-01T10:09:06;26.06;43.20
64034;SHT31;50280;49.864;8.638;2022-09-01T10:12:05;26.78;40.67
64034;SHT31;50280;49.864;8.638;2022-09-01T10:15:04;26.96;40.48
64034;SHT31;50280;49.864;8.638;2022-09-01T10:18:02;26.88;40.28
64034;SHT31;50280;49.864;8.638;2022-09-01T10:21:00;26.84;40.85
64034;SHT31;50280;49.864;8.638;2022-09-01T10:23:59;27.03;39.81
64034;SHT31;50280;49.864;8.638;2022-09-01T10:27:11;27.65;39.92
64034;SHT31;50280;49.864;8.638;2022-09-01T10:30:13;28.16;37.51
64034;SHT31;50280;49.864;8.638;2022-09-01T10:33:08;28.06;37.78
64034;SHT31;50280;49.864;8.638;2022-09-01T10:36:05;27.95;37.31
64034;SHT31;50280;49.864;8.638;2022-09-01T10:38:57;27.58;38.39
64034;SHT31;50280;49.864;8.638;2022-09-01T10:41:51;27.33;38.49
64034;SHT31;50280;49.864;8.638;2022-09-01T10:44:55;27.47;37.56
64034;SHT31;50280;49.864;8.638;2022-09-01T10:47:50;27.94;37.05
64034;SHT31;50280;49.864;8.638;2022-09-01T10:50:41;28.26;35.50
64034;SHT31;50280;49.864;8.638;2022-09-01T10:53:39;28.99;34.95
64034;SHT31;50280;49.864;8.638;2022-09-01T10:56:38;29.15;34.19
64034;SHT31;50280;49.864;8.638;2022-09-01T10:59:34;29.37;33.25
64034;SHT31;50280;49.864;8.638;2022-09-01T11:02:25;29.27;32.47
64034;SHT31;50280;49.864;8.638;2022-09-01T11:05:17;29.02;32.63
64034;SHT31;50280;49.864;8.638;2022-09-01T11:08:22;28.98;32.96
64034;SHT31;50280;49.864;8.638;2022-09-01T11:11:38;28.63;34.61
64034;SHT31;50280;49.864;8.638;2022-09-01T11:14:48;28.91;33.45
64034;SHT31;50280;49.864;8.638;2022-09-01T11:17:55;28.96;32.32
64034;SHT31;50280;49.864;8.638;2022-09-01T11:20:49;28.95;32.86
64034;SHT31;50280;49.864;8.638;2022-09-01T11:23:41;29.16;33.01
64034;SHT31;50280;49.864;8.638;2022-09-01T11:26:45;29.61;32.28
64034;SHT31;50280;49.864;8.638;2022-09-01T11:29:51;29.66;32.34
64034;SHT31;50280;49.864;8.638;2022-09-01T11:32:48;30.12;31.74
64034;SHT31;50280;49.864;8.638;2022-09-01T11:35:46;30.74;31.10
64034;SHT31;50280;49.864;8.638;2022-09-01T11:38:58;31.35;29.98
64034;SHT31;50280;49.864;8.638;2022-09-01T11:42:00;31.70;29.17
64034;SHT31;50280;49.864;8.638;2022-09-01T11:45:01;31.82;27.77
64034;SHT31;50280;49.864;8.638;2022-09-01T11:48:01;31.85;28.67
64034;SHT31;50280;49.864;8.638;2022-09-01T11:51:03;31.40;28.96
64034;SHT31;50280;49.864;8.638;2022-09-01T11:53:58;30.91;29.46
64034;SHT31;50280;49.864;8.638;2022-09-01T11:56:50;30.92;29.21
64034;SHT31;50280;49.864;8.638;2022-09-01T11:59:42;30.98;29.07
64034;SHT31;50280;49.864;8.638;2022-09-01T12:02:35;31.56;27.82
64034;SHT31;50280;49.864;8.638;2022-09-01T12:05:35;32.09;28.10
64034;SHT31;50280;49.864;8.638;2022-09-01T12:08:32;32.46;27.43
64034;SHT31;50280;49.864;8.638;2022-09-01T12:11:28;32.60;27.34
64034;SHT31;50280;49.864;8.638;2022-09-01T12:14:22;32.56;27.05
64034;SHT31;50280;49.864;8.638;2022-09-01T12:17:19;32.15;27.39
64034;SHT31;50280;49.864;8.638;2022-09-01T12:20:22;32.35;27.46
64034;SHT31;50280;49.864;8.638;2022-09-01T12:23:24;32.33;27.07
64034;SHT31;50280;49.864;8.638;2022-09-01T12:26:23;31.82;27.58
64034;SHT31;50280;49.864;8.638;2022-09-01T12:29:19;31.08;28.46
64034;SHT31;50280;49.864;8.638;2022-09-01T12:32:13;30.66;29.13
64034;SHT31;50280;49.864;8.638;2022-09-01T12:35:14;30.98;29.22
64034;SHT31;50280;49.864;8.638;2022-09-01T12:38:24;30.95;28.74
64034;SHT31;50280;49.864;8.638;2022-09-01T12:41:31;31.02;28.54
64034;SHT31;50280;49.864;8.638;2022-09-01T12:44:26;31.07;28.38
64034;SHT31;50280;49.864;8.638;2022-09-01T12:47:46;31.02;29.12
64034;SHT31;50280;49.864;8.638;2022-09-01T12:50:43;30.96;29.05
64034;SHT31;50280;49.864;8.638;2022-09-01T12:53:36;30.96;28.76
64034;SHT31;50280;49.864;8.638;2022-09-01T12:56:30;30.70;29.15
64034;SHT31;50280;49.864;8.638;2022-09-01T12:59:25;30.11;29.61
64034;SHT31;50280;49.864;8.638;2022-09-01T13:02:26;29.45;30.82
64034;SHT31;50280;49.864;8.638;2022-09-01T13:05:27;28.88;31.78
64034;SHT31;50280;49.864;8.638;2022-09-01T13:08:23;28.40;32.54
64034;SHT31;50280;49.864;8.638;2022-09-01T13:11:17;28.67;32.15
64034;SHT31;50280;49.864;8.638;2022-09-01T13:14:12;28.91;31.65
64034;SHT31;50280;49.864;8.638;2022-09-01T13:17:04;29.61;31.46
64034;SHT31;50280;49.864;8.638;2022-09-01T13:19:55;30.55;28.36
64034;SHT31;50280;49.864;8.638;2022-09-01T13:22:46;30.87;28.36
64034;SHT31;50280;49.864;8.638;2022-09-01T13:25:37;31.22;27.65
64034;SHT31;50280;49.864;8.638;2022-09-01T13:28:29;31.64;27.70
64034;SHT31;50280;49.864;8.638;2022-09-01T13:31:22;31.88;26.21
64034;SHT31;50280;49.864;8.638;2022-09-01T13:34:13;31.60;26.63
64034;SHT31;50280;49.864;8.638;2022-09-01T13:37:04;32.01;26.48
64034;SHT31;50280;49.864;8.638;2022-09-01T13:39:56;32.40;25.78
64034;SHT31;50280;49.864;8.638;2022-09-01T13:42:49;32.79;24.81
64034;SHT31;50280;49.864;8.638;2022-09-01T13:45:42;32.79;24.69
64034;SHT31;50280;49.864;8.638;2022-09-01T13:48:34;32.88;24.80
64034;SHT31;50280;49.864;8.638;2022-09-01T13:51:26;32.69;25.65
64034;SHT31;50280;49.864;8.638;2022-09-01T13:54:18;32.90;25.31
64034;SHT31;50280;49.864;8.638;2022-09-01T13:57:10;33.17;24.91
64034;SHT31;50280;49.864;8.638;2022-09-01T14:00:03;33.50;24.67
64034;SHT31;50280;49.864;8.638;2022-09-01T14:03:00;33.74;24.23
64034;SHT31;50280;49.864;8.638;2022-09-01T14:05:56;33.52;25.15
64034;SHT31;50280;49.864;8.638;2022-09-01T14:08:47;33.45;24.21
64034;SHT31;50280;49.864;8.638;2022-09-01T14:11:38;32.46;25.21
64034;SHT31;50280;49.864;8.638;2022-09-01T14:14:32;31.46;26.64
64034;SHT31;50280;49.864;8.638;2022-09-01T14:17:23;31.01;27.67
64034;SHT31;50280;49.864;8.638;2022-09-01T14:20:17;30.67;28.04
64034;SHT31;50280;49.864;8.638;2022-09-01T14:23:14;30.30;27.65
64034;SHT31;50280;49.864;8.638;2022-09-01T14:26:08;29.91;27.59
64034;SHT31;50280;49.864;8.638;2022-09-01T14:29:01;29.67;27.81
64034;SHT31;50280;49.864;8.638;2022-09-01T14:31:52;29.49;28.28
64034;SHT31;50280;49.864;8.638;2022-09-01T14:34:43;29.46;29.13
64034;SHT31;50280;49.864;8.638;2022-09-01T14:37:35;29.49;28.81
64034;SHT31;50280;49.864;8.638;2022-09-01T14:40:28;29.80;28.54
64034;SHT31;50280;49.864;8.638;2022-09-01T14:43:20;30.70;27.73
64034;SHT31;50280;49.864;8.638;2022-09-01T14:46:11;31.19;26.79
64034;SHT31;50280;49.864;8.638;2022-09-01T14:49:03;30.88;26.92
64034;SHT31;50280;49.864;8.638;2022-09-01T14:51:54;30.49;27.92
64034;SHT31;50280;49.864;8.638;2022-09-01T14:54:45;30.41;27.79
64034;SHT31;50280;49.864;8.638;2022-09-01T14:57:38;30.39;28.60
64034;SHT31;50280;49.864;8.638;2022-09-01T15:00:31;30.02;28.56
64034;SHT31;50280;49.864;8.638;2022-09-01T15:03:23;29.73;28.88
64034;SHT31;50280;49.864;8.638;2022-09-01T15:06:19;29.57;29.44
64034;SHT31;50280;49.864;8.638;2022-09-01T15:09:13;29.37;29.35
64034;SHT31;50280;49.864;8.638;2022-09-01T15:12:05;29.19;29.59
64034;SHT31;50280;49.864;8.638;2022-09-01T15:14:58;29.06;30.27
64034;SHT31;50280;49.864;8.638;2022-09-01T15:17:51;28.91;29.99
64034;SHT31;50280;49.864;8.638;2022-09-01T15:20:43;28.72;30.29
64034;SHT31;50280;49.864;8.638;2022-09-01T15:23:34;28.51;30.20
64034;SHT31;50280;49.864;8.638;2022-09-01T15:26:26;28.35;29.96
64034;SHT31;50280;49.864;8.638;2022-09-01T15:29:18;28.23;30.70
64034;SHT31;50280;49.864;8.638;2022-09-01T15:32:10;28.10;30.18
64034;SHT31;50280;49.864;8.638;2022-09-01T15:35:02;27.94;30.15
64034;SHT31;50280;49.864;8.638;2022-09-01T15:37:54;27.84;30.45
64034;SHT31;50280;49.864;8.638;2022-09-01T15:40:46;27.71;30.07
64034;SHT31;50280;49.864;8.638;2022-09-01T15:43:38;27.55;30.49
64034;SHT31;50280;49.864;8.638;2022-09-01T15:46:29;27.58;30.83
64034;SHT31;50280;49.864;8.638;2022-09-01T15:49:21;27.60;30.34
64034;SHT31;50280;49.864;8.638;2022-09-01T15:52:13;27.51;31.38
64034;SHT31;50280;49.864;8.638;2022-09-01T15:55:06;27.46;31.25
64034;SHT31;50280;49.864;8.638;2022-09-01T15:57:58;27.47;31.12
64034;SHT31;50280;49.864;8.638;2022-09-01T16:00:49;27.47;31.29
64034;SHT31;50280;49.864;8.638;2022-09-01T16:03:40;27.47;31.98
64034;SHT31;50280;49.864;8.638;2022-09-01T16:06:33;27.44;31.33
64034;SHT31;50280;49.864;8.638;2022-09-01T16:09:25;27.37;31.74
64034;SHT31;50280;49.864;8.638;2022-09-01T16:12:16;27.40;31.91
64034;SHT31;50280;49.864;8.638;2022-09-01T16:15:08;27.50;31.27
64034;SHT31;50280;49.864;8.638;2022-09-01T16:18:22;27.57;31.31
64034;SHT31;50280;49.864;8.638;2022-09-01T16:21:33;27.53;30.78
64034;SHT31;50280;49.864;8.638;2022-09-01T16:24:41;27.51;30.82
64034;SHT31;50280;49.864;8.638;2022-09-01T16:27:39;27.61;30.97
64034;SHT31;50280;49.864;8.638;2022-09-01T16:30:33;27.68;30.63
64034;SHT31;50280;49.864;8.638;2022-09-01T16:33:25;27.64;30.96
64034;SHT31;50280;49.864;8.638;2022-09-01T16:36:27;27.58;30.83
64034;SHT31;50280;49.864;8.638;2022-09-01T16:39:42;27.49;30.90
64034;SHT31;50280;49.864;8.638;2022-09-01T16:42:42;27.49;30.75
64034;SHT31;50280;49.864;8.638;2022-09-01T16:45:49;27.39;31.06
64034;SHT31;50280;49.864;8.638;2022-09-01T16:48:54;27.33;31.15
64034;SHT31;50280;49.864;8.638;2022-09-01T16:52:12;27.17;31.42
64034;SHT31;50280;49.864;8.638;2022-09-01T16:55:18;27.13;31.33
64034;SHT31;50280;49.864;8.638;2022-09-01T16:58:22;27.05;31.97
64034;SHT31;50280;49.864;8.638;2022-09-01T17:01:34;26.95;32.03
64034;SHT31;50280;49.864;8.638;2022-09-01T17:04:40;26.91;32.53
64034;SHT31;50280;49.864;8.638;2022-09-01T17:07:46;26.84;32.63
64034;SHT31;50280;49.864;8.638;2022-09-01T17:10:46;26.74;33.16
64034;SHT31;50280;49.864;8.638;2022-09-01T17:13:48;26.65;32.98
64034;SHT31;50280;49.864;8.638;2022-09-01T17:16:42;26.53;33.24
64034;SHT31;50280;49.864;8.638;2022-09-01T17:19:36;26.40;33.33
64034;SHT31;50280;49.864;8.638;2022-09-01T17:22:30;26.25;32.77
64034;SHT31;50280;49.864;8.638;2022-09-01T17:25:30;26.09;33.00
64034;SHT31;50280;49.864;8.638;2022-09-01T17:28:31;25.92;33.61
64034;SHT31;50280;49.864;8.638;2022-09-01T17:31:46;25.70;34.10
64034;SHT31;50280;49.864;8.638;2022-09-01T17:34:52;25.48;34.42
64034;SHT31;50280;49.864;8.638;2022-09-01T17:38:00;25.30;34.82
64034;SHT31;50280;49.864;8.638;2022-09-01T17:41:12;25.12;34.89
64034;SHT31;50280;49.864;8.638;2022-09-01T17:44:19;24.96;35.18
64034;SHT31;50280;49.864;8.638;2022-09-01T17:47:32;24.79;35.54
64034;SHT31;50280;49.864;8.638;2022-09-01T17:50:52;24.63;36.15
64034;SHT31;50280;49.864;8.638;2022-09-01T17:54:03;24.46;36.29
64034;SHT31;50280;49.864;8.638;2022-09-01T17:57:13;24.30;36.72
64034;SHT31;50280;49.864;8.638;2022-09-01T18:00:19;24.17;36.96
64034;SHT31;50280;49.864;8.638;2022-09-01T18:07:01;23.92;37.63
64034;SHT31;50280;49.864;8.638;2022-09-01T18:10:11;23.81;38.23
64034;SHT31;50280;49.864;8.638;2022-09-01T18:13:15;23.67;38.48
64034;SHT31;50280;49.864;8.638;2022-09-01T18:16:16;23.54;38.83
64034;SHT31;50280;49.864;8.638;2022-09-01T18:19:14;23.48;39.71
64034;SHT31;50280;49.864;8.638;2022-09-01T18:22:14;23.33;39.93
64034;SHT31;50280;49.864;8.638;2022-09-01T18:25:16;23.22;40.39
64034;SHT31;50280;49.864;8.638;2022-09-01T18:28:12;23.10;40.49
64034;SHT31;50280;49.864;8.638;2022-09-01T18:31:14;22.99;41.01